Time;durP1;ratioP1;P1;durP2;ratioP2;P2;SDS_P1;SDS_P2;PMS_P1;PMS_P2;Temp;Humidity;BMP_temperature;BMP_pressure;BME280_temperature;BME280_humidity;BME280_pressure;Samples;Min_cycle;Max_cycle;Signal;HPM_P1;HPM_P2
2023/08/22 00:00:29;;;;;;;7.75;3.25;;;22.60;68.00;;;;;;5020952;28;20061;-69
2023/08/22 00:02:55;;;;;;;6.32;2.72;;;22.60;68.20;;;;;;5019506;28;20034;-69
2023/08/22 00:05:22;;;;;;;8.02;3.30;;;22.60;68.20;;;;;;5025673;28;20033;-69
2023/08/22 00:07:48;;;;;;;7.60;2.78;;;22.60;68.30;;;;;;5024168;28;20033;-69
2023/08/22 00:10:14;;;;;;;6.90;3.20;;;22.60;68.90;;;;;;5026122;28;20438;-69
2023/08/22 00:12:41;;;;;;;9.68;3.60;;;22.60;68.30;;;;;;5023778;28;20040;-69
2023/08/22 00:15:09;;;;;;;8.15;3.45;;;22.50;68.40;;;;;;5037334;28;20021;-69
2023/08/22 00:17:42;;;;;;;6.93;3.17;;;22.50;68.40;;;;;;5017425;28;20025;-69
2023/08/22 00:20:09;;;;;;;10.15;3.75;;;22.60;68.50;;;;;;5037143;28;20540;-69
2023/08/22 00:22:35;;;;;;;8.57;3.38;;;22.50;68.50;;;;;;5025262;28;20120;-69
2023/08/22 00:25:02;;;;;;;8.45;3.40;;;22.50;68.50;;;;;;5025822;28;20082;-69
2023/08/22 00:27:28;;;;;;;8.38;3.30;;;22.50;68.50;;;;;;5040692;28;20025;-69
2023/08/22 00:29:56;;;;;;;8.52;3.35;;;22.50;68.50;;;;;;5025150;28;20076;-69
2023/08/22 00:32:22;;;;;;;7.65;3.20;;;22.50;68.50;;;;;;5037026;28;20041;-70
2023/08/22 00:34:48;;;;;;;7.35;3.13;;;22.50;69.20;;;;;;5023123;28;20072;-69
2023/08/22 00:37:14;;;;;;;8.05;3.08;;;22.50;68.50;;;;;;5047859;28;20045;-69
2023/08/22 00:39:40;;;;;;;6.82;2.90;;;22.50;68.50;;;;;;5021593;28;20022;-70
2023/08/22 00:42:06;;;;;;;6.65;3.20;;;22.50;68.50;;;;;;5005624;28;20347;-69
2023/08/22 00:44:32;;;;;;;8.63;3.17;;;22.50;68.60;;;;;;5023494;28;20600;-69
2023/08/22 00:46:59;;;;;;;6.95;3.10;;;22.40;69.30;;;;;;5023609;28;20026;-69
2023/08/22 00:49:25;;;;;;;7.43;3.38;;;22.40;68.70;;;;;;5024232;28;20489;-69
2023/08/22 00:51:52;;;;;;;6.80;3.28;;;22.40;68.70;;;;;;5034749;28;20018;-69
2023/08/22 00:54:20;;;;;;;6.45;3.15;;;22.40;68.80;;;;;;5017850;28;20459;-69
2023/08/22 00:56:46;;;;;;;7.57;3.10;;;22.40;69.00;;;;;;5004823;28;20026;-69
2023/08/22 00:59:12;;;;;;;7.43;3.00;;;22.40;69.10;;;;;;5020674;28;20037;-69
2023/08/22 01:01:38;;;;;;;6.40;3.10;;;22.40;69.10;;;;;;5020407;28;20079;-69
2023/08/22 01:04:04;;;;;;;6.28;2.72;;;22.30;69.10;;;;;;5036223;28;20112;-69
2023/08/22 01:06:50;;;;;;;6.95;2.70;;;22.30;69.10;;;;;;5035534;28;20033;-69
2023/08/22 01:09:25;;;;;;;6.22;2.65;;;22.30;69.20;;;;;;5033366;28;20034;-69
2023/08/22 01:11:56;;;;;;;7.00;3.00;;;22.30;69.20;;;;;;5047795;28;20080;-69
2023/08/22 01:14:23;;;;;;;5.72;2.50;;;22.20;69.30;;;;;;5016405;28;20124;-69
2023/08/22 01:16:50;;;;;;;6.43;2.47;;;22.20;69.30;;;;;;5047890;28;20025;-69
2023/08/22 01:19:20;;;;;;;5.30;2.22;;;22.20;69.30;;;;;;5018869;28;20459;-69
2023/08/22 01:21:50;;;;;;;6.50;2.50;;;22.20;69.50;;;;;;5045316;28;20037;-69
2023/08/22 01:24:16;;;;;;;5.85;2.20;;;22.20;69.50;;;;;;5025526;28;20033;-69
2023/08/22 01:26:44;;;;;;;6.35;2.47;;;22.10;69.60;;;;;;5019995;28;20037;-69
2023/08/22 01:29:14;;;;;;;5.65;2.30;;;22.20;69.70;;;;;;5015168;28;20033;-69
2023/08/22 01:32:04;;;;;;;7.53;2.78;;;22.10;69.80;;;;;;5023264;28;20033;-69
2023/08/22 01:34:32;;;;;;;7.17;2.53;;;22.10;69.80;;;;;;5022041;28;20053;-69
2023/08/22 01:36:59;;;;;;;7.35;2.30;;;22.00;69.80;;;;;;5021471;28;20120;-69
2023/08/22 01:39:27;;;;;;;8.30;2.72;;;22.00;70.00;;;;;;5019766;28;20037;-69
2023/08/22 01:41:55;;;;;;;6.15;2.58;;;22.00;70.00;;;;;;5024346;28;20040;-69
2023/08/22 01:44:21;;;;;;;6.97;2.53;;;22.00;70.00;;;;;;5032820;28;20087;-69
2023/08/22 01:46:46;;;;;;;6.85;2.50;;;22.00;70.10;;;;;;5022345;28;20029;-69
2023/08/22 01:49:12;;;;;;;6.95;2.50;;;22.00;70.10;;;;;;5032770;28;20033;-69
2023/08/22 01:51:38;;;;;;;6.32;2.70;;;22.00;70.10;;;;;;5039413;28;20362;-69
2023/08/22 01:54:04;;;;;;;5.97;2.35;;;22.00;70.10;;;;;;5049305;28;20060;-69
2023/08/22 01:56:30;;;;;;;7.10;2.42;;;22.00;70.20;;;;;;5022045;28;20061;-69
2023/08/22 01:58:56;;;;;;;7.03;2.65;;;22.00;70.30;;;;;;5051825;28;20040;-69
2023/08/22 02:01:23;;;;;;;6.53;2.55;;;22.00;70.30;;;;;;5023394;28;20026;-70
2023/08/22 02:03:49;;;;;;;7.10;2.70;;;22.00;70.40;;;;;;5022288;28;20072;-69
2023/08/22 02:06:14;;;;;;;6.05;2.60;;;22.00;70.40;;;;;;5025861;28;20068;-69
2023/08/22 02:08:40;;;;;;;4.55;2.25;;;22.00;70.50;;;;;;5023234;28;20466;-70
2023/08/22 02:11:06;;;;;;;6.28;2.65;;;21.90;70.50;;;;;;5018794;28;20026;-69
2023/08/22 02:13:32;;;;;;;8.30;2.50;;;21.90;70.50;;;;;;5019110;28;20073;-69
2023/08/22 02:15:59;;;;;;;6.18;2.03;;;21.90;70.60;;;;;;5049673;28;20057;-69
2023/08/22 02:18:24;;;;;;;7.50;2.60;;;21.90;70.70;;;;;;5025716;28;20447;-69
2023/08/22 02:20:58;;;;;;;5.70;2.50;;;21.90;70.80;;;;;;5025905;28;20104;-69
2023/08/22 02:23:24;;;;;;;5.18;2.40;;;21.90;70.80;;;;;;5020844;28;20038;-69
2023/08/22 02:25:51;;;;;;;5.25;2.63;;;21.90;70.80;;;;;;5013143;28;20462;-69
2023/08/22 02:28:17;;;;;;;5.97;2.65;;;21.90;70.90;;;;;;5022334;28;20091;-69
2023/08/22 02:30:42;;;;;;;6.53;2.55;;;21.90;71.00;;;;;;5037951;28;20125;-69
2023/08/22 02:33:08;;;;;;;6.70;2.58;;;21.80;71.00;;;;;;5021627;28;20026;-70
2023/08/22 02:35:34;;;;;;;7.22;3.00;;;21.80;71.10;;;;;;5052222;28;20417;-69
2023/08/22 02:37:59;;;;;;;5.97;2.55;;;21.80;71.20;;;;;;5010047;28;20029;-69
2023/08/22 02:40:25;;;;;;;5.60;2.60;;;21.80;71.30;;;;;;5023501;28;20025;-69
2023/08/22 02:42:52;;;;;;;6.93;2.60;;;21.80;71.30;;;;;;5034888;28;20478;-69
2023/08/22 02:45:18;;;;;;;7.53;2.80;;;21.80;71.40;;;;;;5047293;28;20026;-69
2023/08/22 02:47:44;;;;;;;8.80;3.05;;;21.70;71.40;;;;;;5022610;28;20443;-69
2023/08/22 02:50:10;;;;;;;5.55;2.53;;;21.70;71.50;;;;;;5002774;28;20121;-69
2023/08/22 02:52:36;;;;;;;8.35;2.75;;;21.70;71.60;;;;;;5021143;28;20164;-70
2023/08/22 02:55:03;;;;;;;6.95;2.55;;;21.70;71.60;;;;;;5047562;28;20120;-69
2023/08/22 02:57:28;;;;;;;5.57;2.35;;;21.70;71.80;;;;;;5019211;28;20114;-70
2023/08/22 02:59:54;;;;;;;7.35;3.05;;;21.70;71.80;;;;;;5020653;28;20075;-69
2023/08/22 03:02:20;;;;;;;6.78;2.58;;;21.70;71.90;;;;;;5011382;28;20485;-69
2023/08/22 03:04:46;;;;;;;8.93;2.70;;;21.70;72.00;;;;;;5018077;28;20120;-69
2023/08/22 03:07:12;;;;;;;6.30;3.08;;;21.70;72.00;;;;;;5018004;28;20494;-69
2023/08/22 03:09:39;;;;;;;8.05;2.72;;;21.60;72.00;;;;;;5019934;28;20112;-69
2023/08/22 03:12:06;;;;;;;5.32;2.70;;;21.70;72.10;;;;;;5019399;28;20022;-69
2023/08/22 03:14:32;;;;;;;6.63;2.47;;;21.60;72.10;;;;;;5019076;28;20100;-69
2023/08/22 03:16:57;;;;;;;8.98;2.50;;;21.60;72.20;;;;;;5023639;28;20034;-69
2023/08/22 03:19:24;;;;;;;7.60;2.88;;;21.60;72.20;;;;;;5010793;28;20091;-69
2023/08/22 03:21:54;;;;;;;6.47;2.80;;;21.50;72.30;;;;;;5023808;28;20438;-69
2023/08/22 03:24:20;;;;;;;6.50;3.00;;;21.50;72.30;;;;;;5047617;28;20162;-69
2023/08/22 03:26:45;;;;;;;6.53;2.80;;;21.50;72.40;;;;;;5019904;28;20037;-69
2023/08/22 03:29:12;;;;;;;6.25;2.80;;;21.50;72.50;;;;;;5021936;28;20022;-69
2023/08/22 03:31:38;;;;;;;7.05;2.70;;;21.50;72.50;;;;;;5006534;28;20131;-69
2023/08/22 03:34:04;;;;;;;8.10;2.65;;;21.50;72.70;;;;;;5019194;28;20107;-69
2023/08/22 03:36:31;;;;;;;6.60;2.58;;;21.40;72.70;;;;;;5025974;28;20168;-69
2023/08/22 03:39:00;;;;;;;8.77;2.83;;;21.40;72.80;;;;;;5026683;28;20116;-69
2023/08/22 03:41:26;;;;;;;6.13;2.60;;;21.40;72.90;;;;;;5021571;28;20569;-69
2023/08/22 03:43:55;;;;;;;6.43;2.45;;;21.40;72.90;;;;;;5020280;28;20026;-69
2023/08/22 03:46:21;;;;;;;6.75;3.08;;;21.40;72.90;;;;;;5047498;28;20030;-69
2023/08/22 03:48:47;;;;;;;4.72;2.40;;;21.40;73.00;;;;;;5022212;28;20017;-69
2023/08/22 03:51:13;;;;;;;6.18;2.80;;;21.40;73.00;;;;;;5020809;28;20362;-69
2023/08/22 03:53:39;;;;;;;5.65;2.58;;;21.40;73.00;;;;;;5025214;28;20037;-69
2023/08/22 03:56:06;;;;;;;6.38;2.63;;;21.40;73.00;;;;;;5039640;28;20041;-69
2023/08/22 03:58:33;;;;;;;8.52;2.80;;;21.30;73.00;;;;;;5026416;28;20443;-69
2023/08/22 04:01:03;;;;;;;6.03;2.50;;;21.30;73.00;;;;;;5018681;28;20041;-69
2023/08/22 04:03:30;;;;;;;5.07;2.42;;;21.30;73.10;;;;;;5017355;28;20033;-69
2023/08/22 04:05:57;;;;;;;5.90;2.63;;;21.30;73.20;;;;;;5047517;28;20035;-69
2023/08/22 04:08:23;;;;;;;6.38;2.80;;;21.20;73.20;;;;;;5021475;28;20088;-69
2023/08/22 04:10:49;;;;;;;6.60;2.60;;;21.20;73.30;;;;;;5026559;28;20374;-69
2023/08/22 04:13:15;;;;;;;6.80;2.80;;;21.20;73.30;;;;;;5020297;28;20076;-69
2023/08/22 04:15:41;;;;;;;6.82;3.10;;;21.20;73.40;;;;;;5019575;28;20076;-69
2023/08/22 04:18:06;;;;;;;5.85;2.75;;;21.20;73.60;;;;;;5010478;28;20045;-69
2023/08/22 04:20:32;;;;;;;6.70;2.70;;;21.20;73.70;;;;;;5019414;28;20036;-69
2023/08/22 04:22:58;;;;;;;7.25;2.83;;;21.20;73.80;;;;;;5029844;28;20052;-69
2023/08/22 04:25:24;;;;;;;7.00;3.13;;;21.10;73.70;;;;;;5025303;28;20056;-69
2023/08/22 04:27:50;;;;;;;6.13;2.55;;;21.10;73.80;;;;;;5019436;28;20128;-69
2023/08/22 04:30:15;;;;;;;5.78;2.58;;;21.10;73.80;;;;;;5025229;28;20025;-69
2023/08/22 04:32:41;;;;;;;5.80;2.70;;;21.10;73.90;;;;;;5021047;28;20507;-69
2023/08/22 04:35:08;;;;;;;6.20;2.55;;;21.10;73.90;;;;;;5031855;28;20021;-68
2023/08/22 04:37:37;;;;;;;8.13;3.10;;;21.10;74.00;;;;;;5024923;28;20104;-69
2023/08/22 04:40:03;;;;;;;8.48;3.42;;;21.10;74.70;;;;;;5018789;28;20105;-68
2023/08/22 04:42:35;;;;;;;6.55;3.25;;;21.10;74.10;;;;;;5031379;28;20022;-69
2023/08/22 04:45:03;;;;;;;7.88;2.90;;;21.00;74.10;;;;;;5023940;28;20025;-68
2023/08/22 04:47:29;;;;;;;8.10;3.30;;;21.00;74.20;;;;;;5019567;28;20025;-68
2023/08/22 04:49:55;;;;;;;7.28;3.00;;;21.00;74.20;;;;;;5028025;28;20423;-68
2023/08/22 04:52:21;;;;;;;8.13;3.50;;;21.00;74.20;;;;;;5024607;28;20381;-68
2023/08/22 04:54:47;;;;;;;6.13;3.33;;;21.00;74.30;;;;;;5026312;28;20104;-68
2023/08/22 04:57:12;;;;;;;7.20;3.00;;;21.00;74.30;;;;;;5005537;28;20415;-69
2023/08/22 04:59:38;;;;;;;6.28;3.30;;;21.00;74.40;;;;;;5037064;28;20100;-70
2023/08/22 05:02:05;;;;;;;6.65;3.38;;;21.00;74.40;;;;;;5045116;28;20104;-70
2023/08/22 05:04:31;;;;;;;6.80;3.10;;;21.00;74.50;;;;;;5017220;28;20026;-70
2023/08/22 05:06:56;;;;;;;9.63;3.55;;;21.00;74.60;;;;;;5031784;28;20083;-70
2023/08/22 05:09:22;;;;;;;7.78;3.13;;;21.00;74.60;;;;;;5033220;28;20083;-70
2023/08/22 05:11:49;;;;;;;7.15;3.08;;;21.00;74.60;;;;;;5032459;28;20412;-70
2023/08/22 05:14:16;;;;;;;9.32;3.70;;;21.00;74.70;;;;;;5053903;28;20033;-70
2023/08/22 05:16:43;;;;;;;6.85;3.53;;;21.00;74.70;;;;;;5033384;28;20038;-70
2023/08/22 05:19:09;;;;;;;9.68;4.10;;;21.00;74.80;;;;;;5065017;28;20024;-70
2023/08/22 05:21:35;;;;;;;8.52;4.38;;;21.10;75.00;;;;;;5035706;28;20018;-70
2023/08/22 05:24:01;;;;;;;9.00;4.40;;;21.10;75.00;;;;;;5037181;28;20025;-70
2023/08/22 05:26:27;;;;;;;9.32;4.55;;;21.10;75.00;;;;;;5053815;28;20481;-70
2023/08/22 05:28:52;;;;;;;9.20;4.28;;;21.10;75.00;;;;;;5018975;28;20041;-70
2023/08/22 05:31:20;;;;;;;8.15;4.20;;;21.20;75.10;;;;;;5027141;28;20032;-70
2023/08/22 05:33:45;;;;;;;10.27;4.55;;;21.20;75.10;;;;;;5028650;28;20168;-70
2023/08/22 05:36:11;;;;;;;12.25;5.25;;;21.30;75.10;;;;;;5004668;28;20113;-70
2023/08/22 05:38:37;;;;;;;9.82;5.07;;;21.30;75.10;;;;;;5019386;28;20030;-70
2023/08/22 05:41:03;;;;;;;12.50;6.40;;;21.40;75.10;;;;;;5036760;28;20032;-70
2023/08/22 05:43:29;;;;;;;10.13;7.20;;;21.40;75.10;;;;;;5026591;28;20021;-70
2023/08/22 05:45:55;;;;;;;10.98;6.63;;;21.50;75.10;;;;;;5046533;28;20458;-71
2023/08/22 05:48:21;;;;;;;12.70;8.40;;;21.50;75.00;;;;;;5024587;28;20036;-71
2023/08/22 05:50:48;;;;;;;12.50;7.45;;;21.50;74.90;;;;;;5027808;28;20029;-70
2023/08/22 05:53:14;;;;;;;11.40;7.47;;;21.60;74.80;;;;;;5042883;28;20032;-70
2023/08/22 05:55:39;;;;;;;11.35;7.55;;;21.60;74.70;;;;;;5020874;28;20029;-70
2023/08/22 05:58:05;;;;;;;11.68;7.68;;;21.60;74.60;;;;;;5017684;28;20060;-72
2023/08/22 06:00:31;;;;;;;11.45;7.00;;;21.70;74.50;;;;;;5052236;28;20049;-70
2023/08/22 06:02:58;;;;;;;11.68;7.45;;;21.80;74.40;;;;;;5020957;28;20033;-70
2023/08/22 06:05:26;;;;;;;10.35;7.70;;;21.80;74.10;;;;;;5048579;28;20107;-71
2023/08/22 06:07:53;;;;;;;13.25;7.88;;;21.90;73.90;;;;;;5036159;28;20025;-71
2023/08/22 06:10:20;;;;;;;12.20;7.43;;;22.00;73.70;;;;;;5022049;28;20108;-71
2023/08/22 06:12:46;;;;;;;14.23;7.50;;;22.10;73.50;;;;;;5041119;28;20029;-71
2023/08/22 06:15:11;;;;;;;13.68;6.93;;;22.30;73.10;;;;;;5028045;28;20032;-71
2023/08/22 06:17:37;;;;;;;9.98;6.65;;;22.60;72.50;;;;;;5026943;28;20068;-71
2023/08/22 06:20:04;;;;;;;10.63;6.40;;;22.70;71.90;;;;;;5015971;28;20071;-71
2023/08/22 06:22:30;;;;;;;11.10;6.70;;;22.80;71.50;;;;;;5031581;28;20044;-71
2023/08/22 06:24:56;;;;;;;9.45;6.10;;;23.00;71.10;;;;;;5020647;28;20026;-70
2023/08/22 06:27:22;;;;;;;9.68;6.22;;;23.20;70.60;;;;;;5051142;28;20446;-70
2023/08/22 06:29:48;;;;;;;11.05;6.18;;;23.40;70.20;;;;;;5026870;28;20028;-71
2023/08/22 06:32:14;;;;;;;10.05;6.38;;;23.50;70.00;;;;;;5010719;28;20463;-70
2023/08/22 06:34:41;;;;;;;8.77;5.35;;;23.60;69.90;;;;;;5011769;28;20044;-71
2023/08/22 06:37:06;;;;;;;10.20;6.00;;;23.60;69.60;;;;;;5052481;28;20022;-68
2023/08/22 06:39:33;;;;;;;10.02;5.82;;;23.70;69.30;;;;;;5047698;28;20029;-70
2023/08/22 06:41:59;;;;;;;11.07;5.80;;;23.80;68.90;;;;;;5028082;28;20021;-70
2023/08/22 06:44:29;;;;;;;9.38;5.70;;;24.00;68.60;;;;;;5042822;28;20022;-70
2023/08/22 06:46:55;;;;;;;9.93;5.82;;;24.10;68.00;;;;;;5004374;28;20022;-70
2023/08/22 06:49:21;;;;;;;10.40;5.35;;;24.10;67.50;;;;;;5047305;28;20363;-70
2023/08/22 06:51:47;;;;;;;8.35;5.28;;;24.10;67.30;;;;;;5023835;28;20108;-70
2023/08/22 06:54:12;;;;;;;8.95;5.15;;;24.00;67.20;;;;;;5032711;28;20120;-70
2023/08/22 06:56:38;;;;;;;7.82;4.72;;;24.00;67.20;;;;;;5020843;28;20060;-70
2023/08/22 06:59:04;;;;;;;9.65;5.25;;;24.20;66.80;;;;;;5027326;28;20340;-70
2023/08/22 07:01:29;;;;;;;9.27;5.60;;;24.20;66.10;;;;;;5048400;28;20034;-70
2023/08/22 07:03:55;;;;;;;10.85;6.25;;;24.20;66.00;;;;;;5037557;28;20031;-70
2023/08/22 07:06:21;;;;;;;11.63;5.93;;;24.20;66.00;;;;;;5024487;28;20446;-71
2023/08/22 07:08:47;;;;;;;10.27;5.78;;;24.10;66.10;;;;;;5039643;28;20454;-70
2023/08/22 07:11:12;;;;;;;10.02;5.90;;;24.00;66.00;;;;;;5054913;28;20036;-68
2023/08/22 07:13:38;;;;;;;10.82;4.93;;;23.90;65.90;;;;;;5022874;28;20033;-69
2023/08/22 07:16:04;;;;;;;9.38;4.45;;;23.90;66.00;;;;;;5026700;28;20378;-68
2023/08/22 07:18:30;;;;;;;8.13;4.78;;;23.90;65.90;;;;;;5034873;28;20399;-69
2023/08/22 07:20:56;;;;;;;10.10;5.00;;;23.90;65.60;;;;;;5036046;28;20018;-68
2023/08/22 07:23:22;;;;;;;11.85;5.85;;;24.00;65.20;;;;;;5034993;28;20025;-68
2023/08/22 07:25:49;;;;;;;11.27;5.70;;;24.30;64.70;;;;;;5035666;28;20023;-69
2023/08/22 07:28:15;;;;;;;8.93;4.45;;;24.50;64.10;;;;;;5029496;28;20132;-68
2023/08/22 07:30:44;;;;;;;9.27;4.57;;;24.80;63.50;;;;;;5016261;28;20095;-69
2023/08/22 07:33:09;;;;;;;8.90;4.35;;;25.10;62.80;;;;;;5016777;28;20447;-69
2023/08/22 07:35:35;;;;;;;12.13;4.43;;;25.10;62.20;;;;;;5028155;28;20023;-69
2023/08/22 07:38:01;;;;;;;7.90;4.47;;;25.30;62.30;;;;;;5021966;28;20057;-70
2023/08/22 07:40:26;;;;;;;9.07;3.90;;;25.30;62.20;;;;;;5019414;28;20026;-70
2023/08/22 07:42:52;;;;;;;8.95;3.55;;;25.30;62.10;;;;;;5016989;28;20030;-70
2023/08/22 07:45:18;;;;;;;8.48;3.92;;;25.40;61.80;;;;;;5023871;28;20370;-70
2023/08/22 07:47:44;;;;;;;6.82;2.88;;;25.60;61.10;;;;;;5023487;28;20124;-70
2023/08/22 07:50:10;;;;;;;8.85;2.72;;;25.80;60.60;;;;;;5021019;28;20104;-70
2023/08/22 07:52:36;;;;;;;6.65;2.80;;;25.80;60.00;;;;;;5026153;28;20556;-70
2023/08/22 07:55:02;;;;;;;4.90;2.35;;;25.80;59.90;;;;;;5016302;28;20037;-70
2023/08/22 07:57:28;;;;;;;5.15;2.10;;;25.70;59.80;;;;;;5015649;28;20022;-70
2023/08/22 07:59:54;;;;;;;6.22;2.35;;;25.60;59.30;;;;;;5020562;28;20516;-70
2023/08/22 08:02:20;;;;;;;4.47;2.17;;;25.60;59.00;;;;;;5034810;28;20037;-70
2023/08/22 08:04:45;;;;;;;8.05;2.40;;;25.60;58.90;;;;;;5023147;28;20071;-70
2023/08/22 08:07:11;;;;;;;6.85;1.95;;;25.50;58.90;;;;;;5027910;28;20025;-70
2023/08/22 08:09:37;;;;;;;5.88;1.83;;;25.50;58.90;;;;;;5014935;28;20085;-70
2023/08/22 08:12:03;;;;;;;4.63;2.00;;;25.50;58.80;;;;;;5018761;28;20418;-70
2023/08/22 08:14:29;;;;;;;5.88;1.60;;;25.50;58.70;;;;;;5022771;28;20057;-70
2023/08/22 08:16:55;;;;;;;4.50;1.98;;;25.40;58.80;;;;;;5027610;28;20049;-70
2023/08/22 08:19:20;;;;;;;6.07;1.98;;;25.40;58.70;;;;;;5016084;28;20325;-70
2023/08/22 08:21:47;;;;;;;5.85;2.20;;;25.30;58.60;;;;;;5023054;28;20030;-70
2023/08/22 08:24:16;;;;;;;5.22;1.88;;;25.30;58.50;;;;;;5024963;28;20038;-70
2023/08/22 08:26:42;;;;;;;4.90;1.98;;;25.30;58.10;;;;;;5016458;28;20496;-70
2023/08/22 08:29:07;;;;;;;4.28;2.00;;;25.30;58.10;;;;;;5020654;28;20671;-70
2023/08/22 08:31:33;;;;;;;6.53;2.08;;;25.30;58.10;;;;;;5022230;28;20375;-68
2023/08/22 08:33:59;;;;;;;5.82;1.77;;;25.30;58.20;;;;;;5009430;28;20038;-69
2023/08/22 08:36:24;;;;;;;5.68;1.98;;;25.20;58.10;;;;;;5018254;28;20132;-69
2023/08/22 08:38:50;;;;;;;5.20;1.90;;;25.20;58.30;;;;;;5020543;28;20058;-69
2023/08/22 08:41:19;;;;;;;5.03;1.98;;;25.20;58.20;;;;;;5022348;28;20022;-69
2023/08/22 08:43:47;;;;;;;6.28;1.90;;;25.20;57.90;;;;;;5021982;28;20033;-68
2023/08/22 08:46:14;;;;;;;4.53;1.75;;;25.20;58.00;;;;;;5048165;28;20413;-69
2023/08/22 08:48:41;;;;;;;4.43;1.75;;;25.20;58.10;;;;;;5035686;28;20026;-69
2023/08/22 08:51:07;;;;;;;5.53;1.92;;;25.20;58.20;;;;;;5006965;28;20095;-69
2023/08/22 08:53:37;;;;;;;5.65;2.03;;;25.10;58.20;;;;;;5015864;28;20365;-69
2023/08/22 08:56:04;;;;;;;5.05;1.70;;;25.10;58.40;;;;;;5028939;28;20053;-69
2023/08/22 08:58:30;;;;;;;5.03;1.98;;;25.10;58.70;;;;;;5016296;28;20049;-69
2023/08/22 09:00:59;;;;;;;5.38;2.25;;;25.10;58.70;;;;;;5023686;28;20095;-70
2023/08/22 09:03:25;;;;;;;5.05;2.00;;;25.10;58.40;;;;;;5041371;28;20052;-69
2023/08/22 09:05:50;;;;;;;5.93;2.28;;;25.10;58.30;;;;;;5013234;28;20112;-69
2023/08/22 09:08:20;;;;;;;6.32;2.42;;;25.20;58.40;;;;;;5024345;28;20112;-69
2023/08/22 09:10:51;;;;;;;5.72;2.40;;;25.20;58.40;;;;;;5028879;28;20028;-68
2023/08/22 09:13:24;;;;;;;5.57;1.58;;;25.20;58.30;;;;;;5030727;28;20030;-69
2023/08/22 09:15:50;;;;;;;6.88;2.22;;;25.20;58.50;;;;;;5022252;28;20315;-68
2023/08/22 09:18:16;;;;;;;7.32;1.95;;;25.20;58.70;;;;;;5023929;28;20029;-68
2023/08/22 09:20:45;;;;;;;4.43;1.80;;;25.20;58.70;;;;;;5024846;28;20053;-68
2023/08/22 09:23:28;;;;;;;4.80;1.75;;;25.20;58.40;;;;;;5023354;28;20136;-68
2023/08/22 09:25:55;;;;;;;7.25;2.10;;;25.30;58.50;;;;;;5023534;28;20033;-68
2023/08/22 09:28:21;;;;;;;6.70;1.90;;;25.30;57.70;;;;;;5022454;28;20018;-69
2023/08/22 09:30:52;;;;;;;9.02;2.00;;;25.40;57.70;;;;;;5024701;28;20034;-68
2023/08/22 09:33:18;;;;;;;6.22;2.20;;;25.50;57.70;;;;;;5030710;28;20431;-68
2023/08/22 09:35:45;;;;;;;5.80;2.25;;;25.50;57.60;;;;;;5026529;28;20033;-68
2023/08/22 09:38:11;;;;;;;10.70;2.20;;;25.70;57.50;;;;;;5010028;28;20022;-68
2023/08/22 09:40:51;;;;;;;5.63;2.03;;;26.00;57.30;;;;;;5002158;28;20021;-68
2023/08/22 09:43:19;;;;;;;6.03;1.87;;;26.30;56.90;;;;;;5016920;28;20394;-68
2023/08/22 09:45:48;;;;;;;5.53;2.10;;;26.50;56.50;;;;;;5024508;28;20280;-68
2023/08/22 09:48:24;;;;;;;4.32;1.50;;;26.70;55.80;;;;;;5020802;28;20030;-68
2023/08/22 09:50:56;;;;;;;4.93;1.27;;;27.10;55.30;;;;;;5018166;28;21610;-69
2023/08/22 09:53:23;;;;;;;6.05;1.73;;;27.30;54.80;;;;;;5028354;28;20168;-69
2023/08/22 09:55:52;;;;;;;4.88;2.03;;;27.40;54.60;;;;;;5021465;28;20021;-69
2023/08/22 09:58:19;;;;;;;5.47;1.92;;;27.50;54.20;;;;;;5017747;28;20018;-69
2023/08/22 10:00:46;;;;;;;6.68;1.90;;;27.60;53.90;;;;;;5012468;28;20161;-69
2023/08/22 10:03:13;;;;;;;6.38;2.05;;;27.50;53.80;;;;;;5027507;28;20025;-68
2023/08/22 10:05:41;;;;;;;5.93;2.00;;;27.40;53.70;;;;;;5021660;28;20459;-68
2023/08/22 10:08:06;;;;;;;5.90;2.15;;;27.20;53.90;;;;;;5014860;28;20475;-68
2023/08/22 10:10:33;;;;;;;6.75;2.30;;;27.10;54.20;;;;;;5020118;28;20073;-69
2023/08/22 10:13:01;;;;;;;6.18;2.17;;;26.90;54.60;;;;;;5027809;28;20040;-68
2023/08/22 10:15:28;;;;;;;5.05;2.30;;;26.90;54.70;;;;;;5025994;28;20455;-68
2023/08/22 10:17:55;;;;;;;5.68;1.80;;;27.00;54.70;;;;;;5037015;28;20026;-68
2023/08/22 10:20:21;;;;;;;6.43;1.63;;;27.00;54.60;;;;;;5020900;28;20036;-68
2023/08/22 10:22:47;;;;;;;6.57;2.03;;;27.00;54.50;;;;;;5016356;28;20048;-68
2023/08/22 10:25:13;;;;;;;7.55;2.10;;;27.00;54.30;;;;;;5020758;28;20056;-69
2023/08/22 10:27:40;;;;;;;6.25;1.67;;;27.10;54.00;;;;;;5021827;28;20040;-69
2023/08/22 10:30:12;;;;;;;2.95;1.35;;;27.10;53.70;;;;;;5023919;28;20042;-69
2023/08/22 10:32:38;;;;;;;4.13;1.50;;;27.20;53.30;;;;;;5023035;28;20037;-69
2023/08/22 10:35:21;;;;;;;2.42;1.10;;;27.10;53.10;;;;;;5019810;28;20160;-69
2023/08/22 10:37:48;;;;;;;3.85;1.40;;;27.10;52.90;;;;;;5016233;28;20056;-69
2023/08/22 10:40:23;;;;;;;5.03;1.60;;;27.20;52.80;;;;;;5049313;28;20042;-69
2023/08/22 10:43:03;;;;;;;3.50;1.50;;;27.40;52.40;;;;;;5048782;28;20030;-68
2023/08/22 10:46:01;;;;;;;3.70;1.60;;;27.40;52.20;;;;;;5024029;28;20037;-69
2023/08/22 10:48:27;;;;;;;5.53;1.65;;;27.40;52.20;;;;;;5004009;28;20180;-69
2023/08/22 10:51:03;;;;;;;5.70;1.83;;;27.30;52.10;;;;;;5023844;28;20448;-69
2023/08/22 10:53:29;;;;;;;6.88;1.75;;;27.20;51.90;;;;;;5031372;28;20034;-68
2023/08/22 10:55:56;;;;;;;3.42;1.15;;;27.10;51.70;;;;;;5019951;28;20140;-69
2023/08/22 10:58:34;;;;;;;6.63;1.80;;;27.20;51.60;;;;;;5016176;28;20033;-68
2023/08/22 11:01:02;;;;;;;4.72;1.58;;;27.30;51.20;;;;;;5027893;28;20045;-68
2023/08/22 11:03:31;;;;;;;4.03;1.40;;;27.30;51.40;;;;;;5034676;28;20036;-67
2023/08/22 11:05:56;;;;;;;5.30;1.50;;;27.20;51.60;;;;;;5015310;28;20030;-68
2023/08/22 11:08:22;;;;;;;4.78;1.50;;;27.10;51.70;;;;;;5048322;28;20044;-68
2023/08/22 11:10:48;;;;;;;5.30;1.40;;;27.10;51.60;;;;;;5036542;28;20032;-68
2023/08/22 11:13:14;;;;;;;3.72;1.08;;;26.90;51.60;;;;;;5015450;28;20038;-68
2023/08/22 11:15:41;;;;;;;3.60;1.30;;;26.90;52.20;;;;;;5032823;28;20030;-68
2023/08/22 11:18:06;;;;;;;5.63;1.33;;;26.80;52.50;;;;;;5026518;28;20029;-68
2023/08/22 11:20:32;;;;;;;3.65;1.25;;;26.70;52.50;;;;;;5036117;28;20101;-68
2023/08/22 11:22:58;;;;;;;4.85;1.27;;;26.70;52.30;;;;;;5036119;28;20148;-68
2023/08/22 11:25:25;;;;;;;3.33;1.15;;;26.80;52.20;;;;;;5034752;28;20025;-68
2023/08/22 11:27:52;;;;;;;2.88;0.98;;;26.80;51.80;;;;;;5033995;28;20370;-68
2023/08/22 11:30:19;;;;;;;3.45;1.10;;;26.90;52.60;;;;;;5034903;28;20040;-68
2023/08/22 11:32:45;;;;;;;4.85;1.30;;;26.90;51.90;;;;;;5034622;28;20029;-68
2023/08/22 11:35:11;;;;;;;2.15;1.02;;;27.00;52.00;;;;;;5034824;28;20033;-68
2023/08/22 11:37:38;;;;;;;2.75;0.90;;;27.00;52.30;;;;;;5033923;28;20029;-68
2023/08/22 11:40:05;;;;;;;3.83;1.00;;;27.10;51.30;;;;;;5035763;28;20037;-68
2023/08/22 11:42:33;;;;;;;2.45;1.00;;;27.00;51.60;;;;;;5034730;28;20063;-68
2023/08/22 11:45:10;;;;;;;3.67;1.00;;;27.00;50.90;;;;;;5034530;28;20355;-68
2023/08/22 11:47:51;;;;;;;1.85;1.00;;;27.00;50.70;;;;;;5034311;28;20446;-68
2023/08/22 11:50:28;;;;;;;3.05;1.23;;;26.90;50.50;;;;;;5033790;28;20025;-68
2023/08/22 11:52:58;;;;;;;2.65;1.02;;;26.90;50.10;;;;;;5035135;28;20036;-68
2023/08/22 11:55:26;;;;;;;5.65;1.25;;;27.00;50.20;;;;;;5017076;28;20344;-68
2023/08/22 11:57:59;;;;;;;2.17;1.02;;;27.00;50.20;;;;;;5034274;28;20037;-69
2023/08/22 12:00:26;;;;;;;3.92;1.08;;;27.00;50.00;;;;;;5021201;28;20086;-69
2023/08/22 12:02:53;;;;;;;2.88;0.80;;;27.00;49.90;;;;;;5033283;28;20419;-68
2023/08/22 12:05:44;;;;;;;4.60;1.20;;;27.00;50.20;;;;;;5035483;28;20030;-69
2023/08/22 12:08:12;;;;;;;3.65;1.20;;;26.90;50.00;;;;;;5017663;28;20033;-69
2023/08/22 12:10:42;;;;;;;2.97;1.30;;;26.90;50.10;;;;;;5035391;28;20030;-68
2023/08/22 12:13:09;;;;;;;3.35;1.33;;;26.80;50.20;;;;;;5033160;28;20107;-68
2023/08/22 12:15:35;;;;;;;2.75;1.00;;;26.80;49.90;;;;;;5017324;28;20437;-68
2023/08/22 12:18:02;;;;;;;3.05;1.35;;;26.80;50.20;;;;;;5034747;28;20033;-68
2023/08/22 12:20:28;;;;;;;2.45;1.05;;;26.80;50.50;;;;;;5034588;28;20036;-69
2023/08/22 12:22:54;;;;;;;4.85;1.30;;;26.90;50.60;;;;;;5032952;28;20037;-68
2023/08/22 12:25:20;;;;;;;6.32;1.55;;;26.90;50.60;;;;;;5034566;28;20104;-69
2023/08/22 12:27:45;;;;;;;4.15;1.40;;;26.90;50.80;;;;;;5034545;28;20473;-69
2023/08/22 12:30:11;;;;;;;4.00;1.38;;;27.00;50.90;;;;;;5034537;28;20037;-68
2023/08/22 12:32:37;;;;;;;4.78;1.70;;;26.90;51.00;;;;;;5033107;28;20421;-71
2023/08/22 12:35:03;;;;;;;4.10;1.40;;;26.90;51.40;;;;;;5030737;28;20112;-69
2023/08/22 12:37:30;;;;;;;5.15;1.60;;;26.80;51.80;;;;;;5020654;28;20082;-68
2023/08/22 12:39:55;;;;;;;5.65;1.90;;;26.70;52.00;;;;;;5033412;28;20426;-68
2023/08/22 12:42:21;;;;;;;4.35;1.90;;;26.60;52.00;;;;;;5066673;28;20183;-69
2023/08/22 12:44:47;;;;;;;7.75;2.45;;;26.60;52.50;;;;;;5032204;28;20091;-69